Time;durP1;ratioP1;P1;durP2;ratioP2;P2;SDS_P1;SDS_P2;PMS_P1;PMS_P2;Temp;Humidity;BMP_temperature;BMP_pressure;BME280_temperature;BME280_humidity;BME280_pressure;Samples;Min_cycle;Max_cycle;Signal;HPM_P1;HPM_P2
2023/07/21 00:04:38;;;;;;;7.97;3.15;;;;;;;;;;10404313;28;20065;-80
2023/07/21 00:09:38;;;;;;;5.78;3.05;;;;;;;;;;10397429;28;20045;-79
2023/07/21 00:14:38;;;;;;;2.87;2.50;;;;;;;;;;10392334;28;20034;-79
2023/07/21 00:19:39;;;;;;;3.40;2.40;;;;;;;;;;10394274;28;20073;-79
2023/07/21 00:24:40;;;;;;;3.50;2.70;;;;;;;;;;10395108;28;20076;-83
2023/07/21 00:29:40;;;;;;;2.35;2.10;;;;;;;;;;10400868;28;20061;-83
2023/07/21 00:34:41;;;;;;;3.03;2.73;;;;;;;;;;10419292;28;20037;-83
2023/07/21 00:39:42;;;;;;;2.97;2.70;;;;;;;;;;10438963;28;20376;-82
2023/07/21 00:44:42;;;;;;;2.88;2.67;;;;;;;;;;10413434;28;20315;-80
2023/07/21 00:49:43;;;;;;;3.47;2.58;;;;;;;;;;10401728;28;20037;-82
2023/07/21 00:54:45;;;;;;;3.28;2.70;;;;;;;;;;10396178;28;20749;-81
2023/07/21 00:59:54;;;;;;;3.30;2.72;;;;;;;;;;10384118;28;20807;-79
2023/07/21 01:05:01;;;;;;;2.95;2.65;;;;;;;;;;10390664;28;20041;-80
2023/07/21 01:15:26;;;;;;;3.03;2.72;;;;;;;;;;10027933;26;20049;-80
2023/07/21 01:20:30;;;;;;;2.95;2.55;;;;;;;;;;10299314;28;20145;-81
2023/07/21 01:25:31;;;;;;;4.05;2.78;;;;;;;;;;10310114;28;20046;-79
2023/07/21 01:30:32;;;;;;;3.40;2.78;;;;;;;;;;10324062;28;20125;-79
2023/07/21 01:35:33;;;;;;;3.20;2.90;;;;;;;;;;10356586;28;20026;-80
2023/07/21 01:40:33;;;;;;;3.70;2.75;;;;;;;;;;10335613;28;20056;-80
2023/07/21 01:45:34;;;;;;;4.18;2.83;;;;;;;;;;10354737;28;20089;-80
2023/07/21 01:50:37;;;;;;;3.07;2.63;;;;;;;;;;10356530;28;20093;-79
2023/07/21 01:55:37;;;;;;;;;;;;;;;;;;10368545;28;20046;-79
2023/07/21 02:00:41;;;;;;;3.27;2.97;;;;;;;;;;10384239;28;19944;-80
2023/07/21 02:05:41;;;;;;;3.65;3.13;;;;;;;;;;10366143;28;20382;-79
2023/07/21 02:10:42;;;;;;;3.67;3.03;;;;;;;;;;10358098;28;20601;-79
2023/07/21 02:15:54;;;;;;;3.03;2.72;;;;;;;;;;10347737;28;20962;-80
2023/07/21 02:20:54;;;;;;;3.80;3.10;;;;;;;;;;10325018;28;20053;-79
2023/07/21 02:25:55;;;;;;;3.30;3.00;;;;;;;;;;10330169;28;20553;-80
2023/07/21 02:31:03;;;;;;;3.27;2.97;;;;;;;;;;10345591;28;20605;-82
2023/07/21 02:36:05;;;;;;;3.97;3.10;;;;;;;;;;10357030;28;20289;-81
2023/07/21 02:41:08;;;;;;;3.30;3.00;;;;;;;;;;10366540;28;20049;-79
2023/07/21 02:46:08;;;;;;;;;;;;;;;;;;10342148;28;20095;-79
2023/07/21 02:51:09;;;;;;;3.78;3.22;;;;;;;;;;10345595;28;19979;-80
2023/07/21 02:56:16;;;;;;;3.45;3.15;;;;;;;;;;10342575;28;20056;-80
2023/07/21 03:01:32;;;;;;;3.35;2.95;;;;;;;;;;10344140;28;20042;-80
2023/07/21 03:06:33;;;;;;;3.10;2.80;;;;;;;;;;10349367;28;20045;-82
2023/07/21 03:11:34;;;;;;;3.75;3.25;;;;;;;;;;10324672;28;20069;-81
2023/07/21 03:16:44;;;;;;;3.78;3.28;;;;;;;;;;10324428;28;20038;-81
2023/07/21 03:21:45;;;;;;;3.28;2.97;;;;;;;;;;10326435;28;20046;-79
2023/07/21 03:26:46;;;;;;;4.22;3.83;;;;;;;;;;10315199;28;20037;-81
2023/07/21 03:31:48;;;;;;;3.83;3.42;;;;;;;;;;10336258;28;20462;-79
2023/07/21 03:36:50;;;;;;;4.10;3.70;;;;;;;;;;10366862;28;20089;-81
2023/07/21 03:41:50;;;;;;;4.80;4.07;;;;;;;;;;10351330;28;20503;-81
2023/07/21 03:46:51;;;;;;;3.67;3.38;;;;;;;;;;10331910;28;20048;-81
2023/07/21 03:52:05;;;;;;;4.05;3.38;;;;;;;;;;10334763;28;20147;-81
2023/07/21 03:57:07;;;;;;;4.10;3.70;;;;;;;;;;10333532;28;20042;-80
2023/07/21 04:02:08;;;;;;;4.68;3.25;;;;;;;;;;10346353;28;20042;-80
2023/07/21 04:07:08;;;;;;;4.07;3.60;;;;;;;;;;10348699;28;20066;-79
2023/07/21 04:12:13;;;;;;;5.07;3.10;;;;;;;;;;10350335;28;20802;-79
2023/07/21 04:17:13;;;;;;;4.78;3.53;;;;;;;;;;10338940;28;20044;-81
2023/07/21 04:22:14;;;;;;;4.00;3.20;;;;;;;;;;10373267;28;20145;-80
2023/07/21 04:27:14;;;;;;;5.43;3.67;;;;;;;;;;10380385;28;20030;-78
2023/07/21 04:32:16;;;;;;;4.45;3.90;;;;;;;;;;10375785;28;20450;-82
2023/07/21 04:37:17;;;;;;;3.88;3.33;;;;;;;;;;10334321;28;20090;-81
2023/07/21 04:42:24;;;;;;;4.28;3.80;;;;;;;;;;10347222;28;20565;-80
2023/07/21 04:47:26;;;;;;;5.10;3.58;;;;;;;;;;10329210;28;20046;-77
2023/07/21 04:52:33;;;;;;;5.10;4.05;;;;;;;;;;10329002;28;20076;-79
2023/07/21 04:57:33;;;;;;;9.00;4.17;;;;;;;;;;10347326;28;20084;-78
2023/07/21 05:02:33;;;;;;;3.80;3.50;;;;;;;;;;10345255;28;20323;-79
2023/07/21 05:07:34;;;;;;;6.07;3.67;;;;;;;;;;10350967;28;20289;-80
2023/07/21 05:12:36;;;;;;;5.33;4.07;;;;;;;;;;10328280;28;20358;-81
2023/07/21 05:18:00;;;;;;;3.90;3.47;;;;;;;;;;10336487;28;20044;-77
2023/07/21 05:23:19;;;;;;;3.63;3.30;;;;;;;;;;10341671;28;20041;-76
2023/07/21 05:28:49;;;;;;;3.75;3.40;;;;;;;;;;10340139;28;20069;-77
2023/07/21 05:33:50;;;;;;;3.72;3.42;;;;;;;;;;10326413;28;20030;-75
2023/07/21 05:38:51;;;;;;;4.00;3.60;;;;;;;;;;10342140;28;21160;-78
2023/07/21 05:43:54;;;;;;;4.60;3.25;;;;;;;;;;10327691;28;20309;-77
2023/07/21 05:48:55;;;;;;;3.88;3.42;;;;;;;;;;10348643;28;20100;-74
2023/07/21 05:53:55;;;;;;;4.20;3.80;;;;;;;;;;10331982;28;20786;-75
2023/07/21 05:58:59;;;;;;;4.10;3.50;;;;;;;;;;10323680;28;20046;-76
2023/07/21 06:03:59;;;;;;;3.88;3.47;;;;;;;;;;10338071;28;20525;-77
2023/07/21 06:09:00;;;;;;;3.60;3.30;;;;;;;;;;10323260;28;20041;-78
2023/07/21 06:14:18;;;;;;;3.70;3.40;;;;;;;;;;10341893;28;20041;-75
2023/07/21 06:19:42;;;;;;;3.60;3.30;;;;;;;;;;10332623;28;20143;-76
2023/07/21 06:24:44;;;;;;;4.10;3.70;;;;;;;;;;10322774;28;20034;-75
2023/07/21 06:29:45;;;;;;;3.70;3.40;;;;;;;;;;10333206;28;20117;-75
2023/07/21 06:34:52;;;;;;;5.10;3.78;;;;;;;;;;10328336;28;20931;-76
2023/07/21 06:40:17;;;;;;;5.35;3.38;;;;;;;;;;10317193;28;20208;-76
2023/07/21 06:45:39;;;;;;;5.67;3.47;;;;;;;;;;10286270;28;20052;-77
2023/07/21 06:50:54;;;;;;;3.83;3.13;;;;;;;;;;10320813;28;20041;-72
2023/07/21 06:55:57;;;;;;;4.05;3.38;;;;;;;;;;10320130;28;20056;-75
2023/07/21 07:01:00;;;;;;;3.30;2.97;;;;;;;;;;10335613;28;20050;-74
2023/07/21 07:06:01;;;;;;;3.92;3.40;;;;;;;;;;10319942;28;20041;-74
2023/07/21 07:11:01;;;;;;;4.43;3.10;;;;;;;;;;10349528;28;20665;-73
2023/07/21 07:16:02;;;;;;;3.80;3.50;;;;;;;;;;10340995;28;20562;-74
2023/07/21 07:21:03;;;;;;;4.93;3.78;;;;;;;;;;10342383;28;20391;-74
2023/07/21 07:26:05;;;;;;;3.72;3.42;;;;;;;;;;10323699;28;20038;-74
2023/07/21 07:31:06;;;;;;;5.57;4.00;;;;;;;;;;10348681;28;20033;-74
2023/07/21 07:36:06;;;;;;;4.57;3.42;;;;;;;;;;10346612;28;20316;-75
2023/07/21 07:41:10;;;;;;;6.18;4.68;;;;;;;;;;10346113;28;20054;-71
2023/07/21 07:46:11;;;;;;;4.35;3.70;;;;;;;;;;10346579;28;20441;-75
2023/07/21 07:51:11;;;;;;;4.20;3.70;;;;;;;;;;10344879;28;20030;-75
2023/07/21 07:56:15;;;;;;;5.90;3.97;;;;;;;;;;10346131;28;20057;-77
2023/07/21 08:01:15;;;;;;;4.72;3.40;;;;;;;;;;10338127;28;20325;-74
2023/07/21 08:06:17;;;;;;;4.87;3.90;;;;;;;;;;10349019;28;20402;-75
2023/07/21 08:11:17;;;;;;;4.43;3.13;;;;;;;;;;10354916;28;20056;-75
2023/07/21 08:16:18;;;;;;;5.15;3.65;;;;;;;;;;10346849;28;20038;-76
2023/07/21 08:21:20;;;;;;;3.80;3.50;;;;;;;;;;10343233;28;20054;-75
2023/07/21 08:26:20;;;;;;;3.90;3.33;;;;;;;;;;10342625;28;20045;-74
2023/07/21 08:31:21;;;;;;;3.65;2.90;;;;;;;;;;10329961;28;21251;-75
2023/07/21 08:36:21;;;;;;;5.22;3.50;;;;;;;;;;10346841;28;20049;-75
2023/07/21 08:41:22;;;;;;;3.13;2.47;;;;;;;;;;10357508;28;20118;-75
2023/07/21 08:46:23;;;;;;;2.65;2.45;;;;;;;;;;10346567;28;20387;-73
2023/07/21 08:51:23;;;;;;;3.25;2.60;;;;;;;;;;10329790;28;20061;-73
2023/07/21 08:56:24;;;;;;;2.80;2.60;;;;;;;;;;10348857;28;20046;-75
2023/07/21 09:01:24;;;;;;;5.47;2.70;;;;;;;;;;10351200;28;20054;-73
2023/07/21 09:06:24;;;;;;;4.83;2.60;;;;;;;;;;10349504;28;20184;-75
2023/07/21 09:11:25;;;;;;;5.10;4.50;;;;;;;;;;10341324;28;20045;-74
2023/07/21 09:16:25;;;;;;;4.97;2.40;;;;;;;;;;10340062;28;20056;-76
2023/07/21 09:21:26;;;;;;;3.30;2.80;;;;;;;;;;10347083;28;20457;-74
2023/07/21 09:26:29;;;;;;;2.95;2.42;;;;;;;;;;10347545;28;20029;-75
2023/07/21 09:31:33;;;;;;;2.83;2.40;;;;;;;;;;10344721;28;20870;-75
2023/07/21 09:36:34;;;;;;;3.13;2.67;;;;;;;;;;10354139;28;20446;-74
2023/07/21 09:41:34;;;;;;;5.07;3.50;;;;;;;;;;10332728;28;20049;-74
2023/07/21 09:46:35;;;;;;;3.70;3.33;;;;;;;;;;10352993;28;20072;-74
2023/07/21 09:51:37;;;;;;;3.42;3.13;;;;;;;;;;10349704;28;20034;-74
2023/07/21 09:56:39;;;;;;;4.43;3.55;;;;;;;;;;10351541;28;20038;-75
2023/07/21 10:01:40;;;;;;;4.32;3.47;;;;;;;;;;10350308;28;20045;-76
2023/07/21 10:06:40;;;;;;;7.32;5.00;;;;;;;;;;10343615;28;20049;-73
2023/07/21 10:11:44;;;;;;;3.25;2.63;;;;;;;;;;10344324;28;20415;-75
2023/07/21 10:16:45;;;;;;;3.17;2.30;;;;;;;;;;10343172;28;20233;-74
2023/07/21 10:21:49;;;;;;;3.03;2.20;;;;;;;;;;10341197;28;20041;-75
2023/07/21 10:26:54;;;;;;;3.58;2.60;;;;;;;;;;10324630;28;20045;-75
2023/07/21 10:31:58;;;;;;;2.67;2.03;;;;;;;;;;10343253;28;20514;-77
2023/07/21 10:37:02;;;;;;;3.72;2.10;;;;;;;;;;10309859;28;20056;-79
2023/07/21 10:42:03;;;;;;;3.28;2.30;;;;;;;;;;10328762;28;20156;-75
2023/07/21 10:47:05;;;;;;;2.10;1.80;;;;;;;;;;10342761;28;20050;-76
2023/07/21 10:52:05;;;;;;;3.50;2.10;;;;;;;;;;10340855;28;20042;-76
2023/07/21 10:57:08;;;;;;;2.08;1.83;;;;;;;;;;10326607;28;20037;-75
2023/07/21 11:02:08;;;;;;;1.75;1.52;;;;;;;;;;10341514;28;20038;-76
2023/07/21 11:07:09;;;;;;;3.55;2.00;;;;;;;;;;10343029;28;20042;-75
2023/07/21 11:12:09;;;;;;;3.20;1.80;;;;;;;;;;10340080;28;20033;-78
2023/07/21 11:17:10;;;;;;;3.07;2.70;;;;;;;;;;10349531;28;20050;-81
2023/07/21 11:22:10;;;;;;;4.93;2.07;;;;;;;;;;10364755;28;20292;-77
2023/07/21 11:27:10;;;;;;;2.60;2.00;;;;;;;;;;10343616;28;20973;-77
2023/07/21 11:32:22;;;;;;;10.18;9.27;;;;;;;;;;10341880;28;20056;-74
2023/07/21 11:37:22;;;;;;;2.17;1.80;;;;;;;;;;10347683;28;20080;-76
2023/07/21 11:42:23;;;;;;;2.00;1.80;;;;;;;;;;10345463;28;20596;-77
2023/07/21 11:47:23;;;;;;;2.30;2.00;;;;;;;;;;10343426;28;20038;-77
2023/07/21 11:52:25;;;;;;;2.38;1.80;;;;;;;;;;10339986;28;20498;-77
2023/07/21 11:57:27;;;;;;;2.87;2.20;;;;;;;;;;10351281;28;20741;-76
2023/07/21 12:02:30;;;;;;;2.10;1.88;;;;;;;;;;10351707;28;20575;-76
2023/07/21 12:07:30;;;;;;;2.97;2.00;;;;;;;;;;10358670;28;20034;-75
2023/07/21 12:12:31;;;;;;;2.50;1.77;;;;;;;;;;10369084;28;20833;-77
2023/07/21 12:17:32;;;;;;;2.80;2.05;;;;;;;;;;10345560;28;20041;-76
2023/07/21 12:22:33;;;;;;;2.35;2.15;;;;;;;;;;10343952;28;20038;-76
2023/07/21 12:27:34;;;;;;;2.00;1.83;;;;;;;;;;10333055;28;20034;-77
2023/07/21 12:32:35;;;;;;;2.60;1.92;;;;;;;;;;10333694;28;20057;-76
2023/07/21 12:37:39;;;;;;;2.65;1.90;;;;;;;;;;10352391;28;20099;-76
2023/07/21 12:42:40;;;;;;;2.42;2.00;;;;;;;;;;10355183;28;20071;-78
2023/07/21 12:47:42;;;;;;;3.05;1.83;;;;;;;;;;10365429;28;20053;-78
2023/07/21 12:52:43;;;;;;;2.67;1.92;;;;;;;;;;10347824;28;20373;-81
2023/07/21 12:57:43;;;;;;;2.42;1.98;;;;;;;;;;10351371;28;20042;-79
2023/07/21 13:02:44;;;;;;;2.97;2.10;;;;;;;;;;10332587;28;20033;-80
2023/07/21 13:07:47;;;;;;;2.03;1.80;;;;;;;;;;10353398;28;20076;-79
2023/07/21 13:12:48;;;;;;;3.33;2.08;;;;;;;;;;10348036;28;20065;-82
2023/07/21 13:17:50;;;;;;;2.03;1.80;;;;;;;;;;10344971;28;20508;-81
2023/07/21 13:22:56;;;;;;;2.80;2.10;;;;;;;;;;10349188;28;20038;-83
2023/07/21 13:27:57;;;;;;;4.43;2.05;;;;;;;;;;10357156;28;20044;-82
2023/07/21 13:32:57;;;;;;;2.08;1.67;;;;;;;;;;10353290;28;20057;-82
2023/07/21 13:37:57;;;;;;;2.38;2.00;;;;;;;;;;10352270;28;20045;-82
2023/07/21 13:42:58;;;;;;;3.05;2.00;;;;;;;;;;10354075;28;20074;-84
2023/07/21 13:47:58;;;;;;;3.47;1.95;;;;;;;;;;10333525;28;20034;-83
2023/07/21 13:53:00;;;;;;;3.60;1.80;;;;;;;;;;10336489;28;20080;-84
2023/07/21 13:58:02;;;;;;;3.05;1.80;;;;;;;;;;10360796;28;20107;-85
2023/07/21 14:03:03;;;;;;;2.40;1.70;;;;;;;;;;10390753;28;20042;-86
2023/07/21 14:08:04;;;;;;;4.25;2.00;;;;;;;;;;10380223;28;20050;-83
2023/07/21 14:13:12;;;;;;;2.40;1.70;;;;;;;;;;10355293;28;20521;-81
2023/07/21 14:18:12;;;;;;;2.90;1.70;;;;;;;;;;10372360;28;20038;-82
2023/07/21 14:23:14;;;;;;;2.47;1.85;;;;;;;;;;10355986;28;20030;-80
2023/07/21 14:28:15;;;;;;;3.40;2.00;;;;;;;;;;10336560;28;20042;-81
2023/07/21 14:33:15;;;;;;;2.53;1.93;;;;;;;;;;10354231;28;20038;-82
2023/07/21 14:38:20;;;;;;;3.88;2.25;;;;;;;;;;10355349;28;20049;-80
2023/07/21 14:43:23;;;;;;;3.53;2.20;;;;;;;;;;10341934;28;20099;-83
2023/07/21 14:48:24;;;;;;;4.23;2.43;;;;;;;;;;10352423;28;20095;-79
2023/07/21 14:53:25;;;;;;;3.42;1.92;;;;;;;;;;10358251;28;20297;-82
2023/07/21 14:58:25;;;;;;;3.75;2.30;;;;;;;;;;10347542;28;20033;-82
2023/07/21 15:03:25;;;;;;;2.80;2.25;;;;;;;;;;10351215;28;20042;-80
2023/07/21 15:08:26;;;;;;;3.90;2.40;;;;;;;;;;10355400;28;20034;-90
2023/07/21 15:13:30;;;;;;;3.47;2.10;;;;;;;;;;10362175;28;20284;-83
2023/07/21 15:18:33;;;;;;;2.75;2.30;;;;;;;;;;10370068;28;20077;-85
2023/07/21 15:23:35;;;;;;;4.43;2.38;;;;;;;;;;10359112;28;21018;-84
2023/07/21 15:28:38;;;;;;;3.55;2.10;;;;;;;;;;10352320;28;20081;-83
2023/07/21 15:33:41;;;;;;;4.47;2.17;;;;;;;;;;10360954;28;20121;-80
2023/07/21 15:38:41;;;;;;;3.45;2.30;;;;;;;;;;10362060;28;20128;-83
2023/07/21 15:43:41;;;;;;;5.67;2.60;;;;;;;;;;10365242;28;20395;-82
2023/07/21 15:48:42;;;;;;;7.85;2.85;;;;;;;;;;10377447;28;20315;-83
2023/07/21 15:53:44;;;;;;;;;;;;;;;;;;10369719;28;20049;-81
2023/07/21 15:58:48;;;;;;;5.53;2.75;;;;;;;;;;10360786;28;19921;-82
2023/07/21 16:03:51;;;;;;;11.45;3.17;;;;;;;;;;10360925;28;20041;-84
2023/07/21 16:08:52;;;;;;;5.28;3.10;;;;;;;;;;10388630;28;20037;-87
2023/07/21 16:13:52;;;;;;;5.18;3.20;;;;;;;;;;10378025;28;20041;-80
2023/07/21 16:18:53;;;;;;;3.88;3.20;;;;;;;;;;10385687;28;20033;-88
2023/07/21 16:23:55;;;;;;;4.55;3.47;;;;;;;;;;10405044;28;20057;-87
2023/07/21 16:28:58;;;;;;;5.32;3.40;;;;;;;;;;10407576;28;20026;-82
2023/07/21 16:33:59;;;;;;;5.35;3.63;;;;;;;;;;10367770;28;20030;-80
2023/07/21 16:38:59;;;;;;;6.30;3.80;;;;;;;;;;10389594;28;20107;-86
2023/07/21 16:44:00;;;;;;;4.20;3.80;;;;;;;;;;10382859;28;20038;-84
2023/07/21 16:49:00;;;;;;;6.17;4.43;;;;;;;;;;10389750;28;20045;-80
2023/07/21 16:54:01;;;;;;;4.87;4.33;;;;;;;;;;10372585;28;20327;-85
2023/07/21 16:59:01;;;;;;;6.17;4.87;;;;;;;;;;10377079;28;20032;-87
2023/07/21 17:04:01;;;;;;;5.30;4.80;;;;;;;;;;10362659;28;20061;-85
2023/07/21 17:09:02;;;;;;;6.10;5.40;;;;;;;;;;10328981;28;20541;-81
2023/07/21 17:14:03;;;;;;;6.05;4.70;;;;;;;;;;10347731;28;20296;-76
2023/07/21 17:19:03;;;;;;;7.03;4.97;;;;;;;;;;10337445;28;20050;-77
2023/07/21 17:24:04;;;;;;;7.55;5.40;;;;;;;;;;10353950;28;20292;-79
2023/07/21 17:29:04;;;;;;;8.77;5.13;;;;;;;;;;10359790;28;20038;-80
2023/07/21 17:34:06;;;;;;;6.60;5.40;;;;;;;;;;10352563;28;20030;-79
2023/07/21 17:39:06;;;;;;;5.85;4.80;;;;;;;;;;10337603;28;20082;-81
2023/07/21 17:44:08;;;;;;;6.97;5.22;;;;;;;;;;10348859;28;20038;-79
2023/07/21 17:49:08;;;;;;;5.70;4.30;;;;;;;;;;10346294;28;20038;-79
2023/07/21 17:54:09;;;;;;;5.17;4.27;;;;;;;;;;10349608;28;20038;-77
2023/07/21 17:59:09;;;;;;;6.00;5.20;;;;;;;;;;10332124;28;20046;-79
2023/07/21 18:04:10;;;;;;;5.75;4.53;;;;;;;;;;10346589;28;20034;-79
2023/07/21 18:09:10;;;;;;;6.53;5.47;;;;;;;;;;10344746;28;20140;-82
2023/07/21 18:14:11;;;;;;;6.82;4.63;;;;;;;;;;10317681;28;20112;-82
2023/07/21 18:19:43;;;;;;;7.47;5.40;;;;;;;;;;10355283;28;20050;-84
2023/07/21 18:24:45;;;;;;;6.10;4.40;;;;;;;;;;10357516;28;20045;-84
2023/07/21 18:29:46;;;;;;;6.00;5.32;;;;;;;;;;10352399;28;20139;-78
2023/07/21 18:35:10;;;;;;;5.57;4.53;;;;;;;;;;10367443;28;20048;-81
2023/07/21 18:40:15;;;;;;;5.32;4.75;;;;;;;;;;10363297;28;20062;-82
2023/07/21 18:45:16;;;;;;;6.88;5.75;;;;;;;;;;10345424;28;20148;-79
2023/07/21 18:50:21;;;;;;;5.90;4.53;;;;;;;;;;10379603;28;20045;-83
2023/07/21 18:55:23;;;;;;;6.38;4.53;;;;;;;;;;10400645;28;20014;-85
2023/07/21 19:00:23;;;;;;;6.13;4.32;;;;;;;;;;10721734;23;20515;-86
2023/07/21 19:05:23;;;;;;;5.27;4.03;;;;;;;;;;10443282;28;20099;-85
2023/07/21 19:10:24;;;;;;;5.00;4.27;;;;;;;;;;10432481;28;20029;-84
2023/07/21 19:15:24;;;;;;;5.17;3.70;;;;;;;;;;10374833;28;20306;-82
2023/07/21 19:20:24;;;;;;;6.97;4.67;;;;;;;;;;10388537;28;20076;-77
2023/07/21 19:25:25;;;;;;;5.63;4.37;;;;;;;;;;10398024;28;20288;-83
2023/07/21 19:30:25;;;;;;;4.63;4.20;;;;;;;;;;10416799;28;20296;-84
2023/07/21 19:35:26;;;;;;;6.20;4.30;;;;;;;;;;10388246;28;20792;-84
2023/07/21 19:40:27;;;;;;;5.07;4.40;;;;;;;;;;10427735;28;20223;-86
2023/07/21 19:45:30;;;;;;;4.70;4.13;;;;;;;;;;10408767;28;20259;-85
2023/07/21 19:50:49;;;;;;;4.93;4.50;;;;;;;;;;10405283;28;20207;-81
2023/07/21 19:55:50;;;;;;;5.43;4.65;;;;;;;;;;10411378;28;20052;-83
2023/07/21 20:00:50;;;;;;;5.35;4.53;;;;;;;;;;10419979;28;20313;-84
2023/07/21 20:05:50;;;;;;;5.70;4.90;;;;;;;;;;10414240;28;20053;-81
2023/07/21 20:10:52;;;;;;;6.15;5.03;;;;;;;;;;10490183;22;20060;-83
2023/07/21 20:15:54;;;;;;;6.90;5.28;;;;;;;;;;10391621;28;20782;-88
2023/07/21 20:20:54;;;;;;;5.85;4.97;;;;;;;;;;10378597;28;20054;-86
2023/07/21 20:25:57;;;;;;;6.47;5.50;;;;;;;;;;10378621;28;20117;-83
2023/07/21 20:36:24;;;;;;;6.35;5.22;;;;;;;;;;10605992;23;20113;-84
2023/07/21 20:41:24;;;;;;;6.55;5.72;;;;;;;;;;10333308;28;20423;-85
2023/07/21 20:46:24;;;;;;;7.05;6.03;;;;;;;;;;10320697;28;20045;-82
2023/07/21 20:51:26;;;;;;;6.50;5.80;;;;;;;;;;10358306;28;20129;-83
2023/07/21 20:56:29;;;;;;;8.02;6.50;;;;;;;;;;10533981;23;20074;-84
2023/07/21 21:01:31;;;;;;;8.63;7.70;;;;;;;;;;10691782;23;20319;-82
2023/07/21 21:06:32;;;;;;;7.50;6.70;;;;;;;;;;11123868;23;20293;-81
2023/07/21 21:11:33;;;;;;;8.05;7.10;;;;;;;;;;10362664;23;20045;-81
2023/07/21 21:16:38;;;;;;;7.73;6.83;;;;;;;;;;10392053;23;20174;-79
2023/07/21 21:21:38;;;;;;;9.55;7.43;;;;;;;;;;10756353;23;20506;-84
2023/07/21 21:26:40;;;;;;;8.30;6.63;;;;;;;;;;10496372;23;20054;-82
2023/07/21 21:31:41;;;;;;;8.70;6.95;;;;;;;;;;10377334;28;20044;-84
2023/07/21 21:36:41;;;;;;;7.00;6.30;;;;;;;;;;10364490;28;20057;-84
2023/07/21 21:41:41;;;;;;;9.30;8.03;;;;;;;;;;10374334;28;20053;-82
2023/07/21 21:46:43;;;;;;;10.32;7.93;;;;;;;;;;10393061;28;20273;-81
2023/07/21 21:51:44;;;;;;;10.00;8.73;;;;;;;;;;10391426;28;20048;-81
2023/07/21 21:56:44;;;;;;;10.13;8.45;;;;;;;;;;10388470;28;20037;-80
2023/07/21 22:01:45;;;;;;;10.30;7.82;;;;;;;;;;10646185;23;20086;-82
2023/07/21 22:12:11;;;;;;;13.60;9.93;;;;;;;;;;10597336;23;20042;-83
2023/07/21 22:17:11;;;;;;;12.13;9.27;;;;;;;;;;10423870;23;20057;-81
2023/07/21 22:22:12;;;;;;;11.60;9.13;;;;;;;;;;10324737;28;20066;-82
2023/07/21 22:27:12;;;;;;;11.88;9.77;;;;;;;;;;10310024;28;20045;-84
2023/07/21 22:32:13;;;;;;;11.03;9.10;;;;;;;;;;10959547;23;20101;-81
2023/07/21 22:37:13;;;;;;;11.13;9.15;;;;;;;;;;10352855;28;20011;-82
2023/07/21 22:42:13;;;;;;;9.87;7.53;;;;;;;;;;10345825;28;20070;-84
2023/07/21 22:47:14;;;;;;;9.47;7.67;;;;;;;;;;10374362;28;20856;-84
2023/07/21 22:52:15;;;;;;;7.70;6.80;;;;;;;;;;10373682;28;20305;-84
2023/07/21 22:57:16;;;;;;;6.97;6.18;;;;;;;;;;10377530;28;20062;-86
2023/07/21 23:02:17;;;;;;;9.85;7.03;;;;;;;;;;10361651;28;20046;-87
2023/07/21 23:07:18;;;;;;;7.97;5.93;;;;;;;;;;10331482;28;20476;-83
2023/07/21 23:12:18;;;;;;;5.68;4.80;;;;;;;;;;10358703;28;20049;-85
2023/07/21 23:17:19;;;;;;;6.00;5.40;;;;;;;;;;10345280;28;20042;-85
2023/07/21 23:22:20;;;;;;;5.32;4.15;;;;;;;;;;10360201;28;21525;-81
2023/07/21 23:27:21;;;;;;;7.63;5.20;;;;;;;;;;10352050;28;20060;-81
2023/07/21 23:32:22;;;;;;;6.97;5.00;;;;;;;;;;10339657;28;20281;-82
2023/07/21 23:37:22;;;;;;;6.20;4.83;;;;;;;;;;10352806;28;20032;-83
2023/07/21 23:42:24;;;;;;;6.15;4.80;;;;;;;;;;10361422;28;20680;-84
2023/07/21 23:47:26;;;;;;;5.57;4.85;;;;;;;;;;10356394;28;20045;-85
2023/07/21 23:52:27;;;;;;;7.25;5.20;;;;;;;;;;10333212;28;20057;-83
2023/07/21 23:57:27;;;;;;;6.15;5.15;;;;;;;;;;10348267;28;20093;-82
